sensor_id;sensor_type;location;lat;lon;timestamp;P1;durP1;ratioP1;P2;durP2;ratioP2
13807;SDS011;40769;51.512;5.494;2023-02-15T00:01:36;13.50;;;12.10;;
13807;SDS011;40769;51.512;5.494;2023-02-15T00:04:03;10.90;;;9.80;;
13807;SDS011;40769;51.512;5.494;2023-02-15T00:06:29;10.90;;;9.88;;
13807;SDS011;40769;51.512;5.494;2023-02-15T00:08:55;10.52;;;9.45;;
13807;SDS011;40769;51.512;5.494;2023-02-15T00:11:21;10.63;;;9.52;;
13807;SDS011;40769;51.512;5.494;2023-02-15T00:16:39;11.38;;;10.27;;
13807;SDS011;40769;51.512;5.494;2023-02-15T00:19:05;15.77;;;13.95;;
13807;SDS011;40769;51.512;5.494;2023-02-15T00:21:32;18.92;;;16.95;;
13807;SDS011;40769;51.512;5.494;2023-02-15T00:23:59;18.92;;;17.02;;
13807;SDS011;40769;51.512;5.494;2023-02-15T00:26:25;13.43;;;12.05;;
13807;SDS011;40769;51.512;5.494;2023-02-15T00:28:52;11.80;;;10.70;;
13807;SDS011;40769;51.512;5.494;2023-02-15T00:31:19;12.00;;;10.90;;
13807;SDS011;40769;51.512;5.494;2023-02-15T00:33:45;11.23;;;10.05;;
13807;SDS011;40769;51.512;5.494;2023-02-15T00:36:11;12.57;;;11.35;;
13807;SDS011;40769;51.512;5.494;2023-02-15T00:38:37;12.68;;;11.38;;
13807;SDS011;40769;51.512;5.494;2023-02-15T00:41:04;11.57;;;10.48;;
13807;SDS011;40769;51.512;5.494;2023-02-15T00:43:31;19.30;;;17.30;;
13807;SDS011;40769;51.512;5.494;2023-02-15T00:45:58;21.25;;;18.95;;
13807;SDS011;40769;51.512;5.494;2023-02-15T00:48:24;21.27;;;19.07;;
13807;SDS011;40769;51.512;5.494;2023-02-15T00:50:51;14.80;;;13.30;;
13807;SDS011;40769;51.512;5.494;2023-02-15T00:53:18;11.20;;;10.07;;
13807;SDS011;40769;51.512;5.494;2023-02-15T00:55:44;12.15;;;10.85;;
13807;SDS011;40769;51.512;5.494;2023-02-15T00:58:10;11.68;;;10.48;;
13807;SDS011;40769;51.512;5.494;2023-02-15T01:00:37;10.93;;;9.83;;
13807;SDS011;40769;51.512;5.494;2023-02-15T01:03:03;11.40;;;10.30;;
13807;SDS011;40769;51.512;5.494;2023-02-15T01:05:29;11.68;;;10.48;;
13807;SDS011;40769;51.512;5.494;2023-02-15T01:07:56;16.35;;;14.65;;
13807;SDS011;40769;51.512;5.494;2023-02-15T01:10:22;17.60;;;15.65;;
13807;SDS011;40769;51.512;5.494;2023-02-15T01:12:48;19.30;;;16.52;;
13807;SDS011;40769;51.512;5.494;2023-02-15T01:15:15;17.77;;;15.88;;
13807;SDS011;40769;51.512;5.494;2023-02-15T01:17:40;12.50;;;11.30;;
13807;SDS011;40769;51.512;5.494;2023-02-15T01:20:07;11.10;;;10.00;;
13807;SDS011;40769;51.512;5.494;2023-02-15T01:22:33;10.77;;;9.67;;
13807;SDS011;40769;51.512;5.494;2023-02-15T01:24:58;12.70;;;11.40;;
13807;SDS011;40769;51.512;5.494;2023-02-15T01:27:24;12.43;;;10.73;;
13807;SDS011;40769;51.512;5.494;2023-02-15T01:29:50;11.57;;;10.37;;
13807;SDS011;40769;51.512;5.494;2023-02-15T01:32:16;12.07;;;10.63;;
13807;SDS011;40769;51.512;5.494;2023-02-15T01:34:41;11.02;;;9.93;;
13807;SDS011;40769;51.512;5.494;2023-02-15T01:37:07;15.77;;;14.17;;
13807;SDS011;40769;51.512;5.494;2023-02-15T01:39:32;18.27;;;16.30;;
13807;SDS011;40769;51.512;5.494;2023-02-15T01:41:58;16.37;;;14.67;;
13807;SDS011;40769;51.512;5.494;2023-02-15T01:47:17;12.63;;;11.30;;
13807;SDS011;40769;51.512;5.494;2023-02-15T01:49:48;12.13;;;10.53;;
13807;SDS011;40769;51.512;5.494;2023-02-15T01:52:22;10.57;;;9.57;;
13807;SDS011;40769;51.512;5.494;2023-02-15T01:54:50;10.50;;;9.50;;
13807;SDS011;40769;51.512;5.494;2023-02-15T01:57:17;10.33;;;9.33;;
13807;SDS011;40769;51.512;5.494;2023-02-15T01:59:47;10.30;;;9.17;;
13807;SDS011;40769;51.512;5.494;2023-02-15T02:02:17;10.70;;;9.70;;
13807;SDS011;40769;51.512;5.494;2023-02-15T02:04:50;12.70;;;11.43;;
13807;SDS011;40769;51.512;5.494;2023-02-15T02:07:17;12.60;;;11.40;;
13807;SDS011;40769;51.512;5.494;2023-02-15T02:09:45;12.68;;;11.38;;
13807;SDS011;40769;51.512;5.494;2023-02-15T02:12:12;14.97;;;13.37;;
13807;SDS011;40769;51.512;5.494;2023-02-15T02:14:38;11.63;;;10.48;;
13807;SDS011;40769;51.512;5.494;2023-02-15T02:17:18;9.50;;;8.60;;
13807;SDS011;40769;51.512;5.494;2023-02-15T02:20:06;9.73;;;8.77;;
13807;SDS011;40769;51.512;5.494;2023-02-15T02:23:06;8.40;;;7.60;;
13807;SDS011;40769;51.512;5.494;2023-02-15T02:34:31;12.80;;;11.57;;
13807;SDS011;40769;51.512;5.494;2023-02-15T02:37:10;11.47;;;10.33;;
13807;SDS011;40769;51.512;5.494;2023-02-15T02:45:05;7.70;;;7.00;;
13807;SDS011;40769;51.512;5.494;2023-02-15T02:47:45;8.47;;;7.67;;
13807;SDS011;40769;51.512;5.494;2023-02-15T02:50:23;8.53;;;7.73;;
13807;SDS011;40769;51.512;5.494;2023-02-15T02:52:51;10.23;;;9.23;;
13807;SDS011;40769;51.512;5.494;2023-02-15T02:58:09;8.67;;;7.87;;
13807;SDS011;40769;51.512;5.494;2023-02-15T03:00:44;10.50;;;9.50;;
13807;SDS011;40769;51.512;5.494;2023-02-15T03:03:34;11.10;;;10.07;;
13807;SDS011;40769;51.512;5.494;2023-02-15T03:06:24;11.05;;;9.98;;
13807;SDS011;40769;51.512;5.494;2023-02-15T03:08:55;13.53;;;12.17;;
13807;SDS011;40769;51.512;5.494;2023-02-15T03:11:27;12.00;;;10.80;;
13807;SDS011;40769;51.512;5.494;2023-02-15T03:13:52;9.67;;;8.77;;
13807;SDS011;40769;51.512;5.494;2023-02-15T03:16:18;9.87;;;8.87;;
13807;SDS011;40769;51.512;5.494;2023-02-15T03:18:52;10.90;;;9.80;;
13807;SDS011;40769;51.512;5.494;2023-02-15T03:21:36;10.40;;;9.37;;
13807;SDS011;40769;51.512;5.494;2023-02-15T03:24:23;9.23;;;8.33;;
13807;SDS011;40769;51.512;5.494;2023-02-15T03:26:51;9.80;;;8.80;;
13807;SDS011;40769;51.512;5.494;2023-02-15T03:29:19;12.33;;;11.03;;
13807;SDS011;40769;51.512;5.494;2023-02-15T03:31:48;11.57;;;10.40;;
13807;SDS011;40769;51.512;5.494;2023-02-15T03:34:16;9.20;;;8.30;;
13807;SDS011;40769;51.512;5.494;2023-02-15T03:36:54;9.50;;;8.50;;
13807;SDS011;40769;51.512;5.494;2023-02-15T03:39:28;137.50;;;29.27;;
13807;SDS011;40769;51.512;5.494;2023-02-15T03:41:57;14.23;;;12.40;;
13807;SDS011;40769;51.512;5.494;2023-02-15T03:44:30;15.97;;;14.37;;
13807;SDS011;40769;51.512;5.494;2023-02-15T03:47:32;14.77;;;13.37;;
13807;SDS011;40769;51.512;5.494;2023-02-15T03:53:06;9.77;;;8.87;;
13807;SDS011;40769;51.512;5.494;2023-02-15T03:55:35;9.60;;;8.60;;
13807;SDS011;40769;51.512;5.494;2023-02-15T03:58:02;9.90;;;8.90;;
13807;SDS011;40769;51.512;5.494;2023-02-15T04:00:54;9.93;;;8.93;;
13807;SDS011;40769;51.512;5.494;2023-02-15T04:03:44;8.77;;;7.97;;
13807;SDS011;40769;51.512;5.494;2023-02-15T04:06:15;9.17;;;8.27;;
13807;SDS011;40769;51.512;5.494;2023-02-15T04:08:41;8.80;;;8.00;;
13807;SDS011;40769;51.512;5.494;2023-02-15T04:11:25;12.77;;;11.50;;
13807;SDS011;40769;51.512;5.494;2023-02-15T04:13:51;16.60;;;14.87;;
13807;SDS011;40769;51.512;5.494;2023-02-15T04:16:21;16.63;;;14.67;;
13807;SDS011;40769;51.512;5.494;2023-02-15T04:18:47;15.23;;;13.70;;
13807;SDS011;40769;51.512;5.494;2023-02-15T04:21:32;10.40;;;9.40;;
13807;SDS011;40769;51.512;5.494;2023-02-15T04:24:16;8.90;;;8.00;;
13807;SDS011;40769;51.512;5.494;2023-02-15T04:27:01;8.33;;;7.53;;
13807;SDS011;40769;51.512;5.494;2023-02-15T04:29:28;9.07;;;8.17;;
13807;SDS011;40769;51.512;5.494;2023-02-15T04:31:55;8.67;;;7.87;;
13807;SDS011;40769;51.512;5.494;2023-02-15T04:34:22;8.67;;;7.83;;
13807;SDS011;40769;51.512;5.494;2023-02-15T04:36:48;8.23;;;7.43;;
13807;SDS011;40769;51.512;5.494;2023-02-15T04:39:15;8.50;;;7.70;;
13807;SDS011;40769;51.512;5.494;2023-02-15T04:41:42;12.93;;;11.57;;
13807;SDS011;40769;51.512;5.494;2023-02-15T04:44:08;13.83;;;12.50;;
13807;SDS011;40769;51.512;5.494;2023-02-15T04:46:34;13.80;;;12.40;;
13807;SDS011;40769;51.512;5.494;2023-02-15T04:48:59;13.80;;;12.33;;
13807;SDS011;40769;51.512;5.494;2023-02-15T04:51:25;10.07;;;9.03;;
13807;SDS011;40769;51.512;5.494;2023-02-15T04:53:51;8.73;;;7.80;;
13807;SDS011;40769;51.512;5.494;2023-02-15T04:56:17;7.53;;;6.83;;
13807;SDS011;40769;51.512;5.494;2023-02-15T04:58:44;6.90;;;6.30;;
13807;SDS011;40769;51.512;5.494;2023-02-15T05:01:10;6.93;;;6.33;;
13807;SDS011;40769;51.512;5.494;2023-02-15T05:03:36;7.43;;;6.77;;
13807;SDS011;40769;51.512;5.494;2023-02-15T05:06:02;8.30;;;7.50;;
13807;SDS011;40769;51.512;5.494;2023-02-15T05:08:28;11.53;;;10.43;;
13807;SDS011;40769;51.512;5.494;2023-02-15T05:10:54;14.27;;;12.87;;
13807;SDS011;40769;51.512;5.494;2023-02-15T05:13:19;13.33;;;12.10;;
13807;SDS011;40769;51.512;5.494;2023-02-15T05:15:49;11.90;;;10.73;;
13807;SDS011;40769;51.512;5.494;2023-02-15T05:18:19;10.63;;;9.63;;
13807;SDS011;40769;51.512;5.494;2023-02-15T05:20:46;8.27;;;7.47;;
13807;SDS011;40769;51.512;5.494;2023-02-15T05:23:13;8.53;;;7.73;;
13807;SDS011;40769;51.512;5.494;2023-02-15T05:25:39;8.80;;;7.90;;
13807;SDS011;40769;51.512;5.494;2023-02-15T05:28:23;9.13;;;8.23;;
13807;SDS011;40769;51.512;5.494;2023-02-15T05:31:14;8.53;;;7.73;;
13807;SDS011;40769;51.512;5.494;2023-02-15T05:33:39;8.60;;;7.57;;
13807;SDS011;40769;51.512;5.494;2023-02-15T05:36:05;14.83;;;13.17;;
13807;SDS011;40769;51.512;5.494;2023-02-15T05:38:32;13.40;;;12.10;;
13807;SDS011;40769;51.512;5.494;2023-02-15T05:40:58;13.63;;;12.23;;
13807;SDS011;40769;51.512;5.494;2023-02-15T05:43:24;13.30;;;11.80;;
13807;SDS011;40769;51.512;5.494;2023-02-15T05:45:51;12.53;;;11.33;;
13807;SDS011;40769;51.512;5.494;2023-02-15T05:48:19;13.73;;;12.27;;
13807;SDS011;40769;51.512;5.494;2023-02-15T05:50:46;12.17;;;10.93;;
13807;SDS011;40769;51.512;5.494;2023-02-15T05:53:22;12.33;;;9.93;;
13807;SDS011;40769;51.512;5.494;2023-02-15T05:55:48;11.17;;;10.07;;
13807;SDS011;40769;51.512;5.494;2023-02-15T05:58:13;12.03;;;10.93;;
13807;SDS011;40769;51.512;5.494;2023-02-15T06:00:39;11.10;;;10.10;;
13807;SDS011;40769;51.512;5.494;2023-02-15T06:03:05;10.40;;;9.27;;
13807;SDS011;40769;51.512;5.494;2023-02-15T06:05:30;9.63;;;8.70;;
13807;SDS011;40769;51.512;5.494;2023-02-15T06:07:56;9.47;;;8.57;;
13807;SDS011;40769;51.512;5.494;2023-02-15T06:10:21;11.27;;;9.70;;
13807;SDS011;40769;51.512;5.494;2023-02-15T06:12:47;10.37;;;9.37;;
13807;SDS011;40769;51.512;5.494;2023-02-15T06:15:13;8.77;;;7.97;;
13807;SDS011;40769;51.512;5.494;2023-02-15T06:17:40;9.07;;;8.17;;
13807;SDS011;40769;51.512;5.494;2023-02-15T06:20:07;9.13;;;8.23;;
13807;SDS011;40769;51.512;5.494;2023-02-15T06:22:33;14.17;;;12.77;;
13807;SDS011;40769;51.512;5.494;2023-02-15T06:24:59;15.33;;;13.73;;
13807;SDS011;40769;51.512;5.494;2023-02-15T06:27:25;15.77;;;14.13;;
13807;SDS011;40769;51.512;5.494;2023-02-15T06:29:50;16.10;;;14.40;;
13807;SDS011;40769;51.512;5.494;2023-02-15T06:32:16;15.53;;;13.40;;
13807;SDS011;40769;51.512;5.494;2023-02-15T06:34:42;14.40;;;12.93;;
13807;SDS011;40769;51.512;5.494;2023-02-15T06:37:07;10.87;;;9.80;;
13807;SDS011;40769;51.512;5.494;2023-02-15T06:39:33;10.20;;;9.10;;
13807;SDS011;40769;51.512;5.494;2023-02-15T06:41:59;9.23;;;8.33;;
13807;SDS011;40769;51.512;5.494;2023-02-15T06:44:25;8.90;;;8.00;;
13807;SDS011;40769;51.512;5.494;2023-02-15T06:46:51;8.87;;;7.97;;
13807;SDS011;40769;51.512;5.494;2023-02-15T06:49:16;8.23;;;7.53;;
13807;SDS011;40769;51.512;5.494;2023-02-15T06:51:42;8.50;;;7.70;;
13807;SDS011;40769;51.512;5.494;2023-02-15T06:54:08;13.97;;;12.53;;
13807;SDS011;40769;51.512;5.494;2023-02-15T06:56:33;16.77;;;15.07;;
13807;SDS011;40769;51.512;5.494;2023-02-15T06:58:59;15.87;;;14.27;;
13807;SDS011;40769;51.512;5.494;2023-02-15T07:01:24;15.60;;;13.70;;
13807;SDS011;40769;51.512;5.494;2023-02-15T07:03:50;10.40;;;9.30;;
13807;SDS011;40769;51.512;5.494;2023-02-15T07:06:16;9.90;;;8.97;;
13807;SDS011;40769;51.512;5.494;2023-02-15T07:08:41;9.13;;;8.23;;
13807;SDS011;40769;51.512;5.494;2023-02-15T07:11:07;8.87;;;7.97;;
13807;SDS011;40769;51.512;5.494;2023-02-15T07:13:51;8.33;;;7.53;;
13807;SDS011;40769;51.512;5.494;2023-02-15T07:16:17;9.67;;;8.70;;
13807;SDS011;40769;51.512;5.494;2023-02-15T07:18:44;14.87;;;13.37;;
13807;SDS011;40769;51.512;5.494;2023-02-15T07:21:09;17.33;;;15.53;;
13807;SDS011;40769;51.512;5.494;2023-02-15T07:23:35;17.77;;;15.97;;
13807;SDS011;40769;51.512;5.494;2023-02-15T07:26:04;13.83;;;12.43;;
13807;SDS011;40769;51.512;5.494;2023-02-15T07:28:31;15.80;;;14.10;;
13807;SDS011;40769;51.512;5.494;2023-02-15T07:30:57;12.20;;;10.80;;
13807;SDS011;40769;51.512;5.494;2023-02-15T07:33:22;13.90;;;12.40;;
13807;SDS011;40769;51.512;5.494;2023-02-15T07:35:49;17.00;;;15.03;;
13807;SDS011;40769;51.512;5.494;2023-02-15T07:38:19;12.67;;;11.37;;
13807;SDS011;40769;51.512;5.494;2023-02-15T07:40:46;11.23;;;10.13;;
13807;SDS011;40769;51.512;5.494;2023-02-15T07:43:12;15.25;;;13.48;;
13807;SDS011;40769;51.512;5.494;2023-02-15T07:45:38;13.27;;;11.90;;
13807;SDS011;40769;51.512;5.494;2023-02-15T07:48:04;17.65;;;15.85;;
13807;SDS011;40769;51.512;5.494;2023-02-15T07:50:30;15.60;;;14.07;;
13807;SDS011;40769;51.512;5.494;2023-02-15T07:52:57;20.73;;;18.42;;
13807;SDS011;40769;51.512;5.494;2023-02-15T07:55:23;20.67;;;18.58;;
13807;SDS011;40769;51.512;5.494;2023-02-15T07:57:49;18.48;;;16.65;;
13807;SDS011;40769;51.512;5.494;2023-02-15T08:00:16;19.83;;;17.73;;
13807;SDS011;40769;51.512;5.494;2023-02-15T08:02:49;20.67;;;18.48;;
13807;SDS011;40769;51.512;5.494;2023-02-15T08:05:35;15.88;;;14.18;;
13807;SDS011;40769;51.512;5.494;2023-02-15T08:08:01;17.67;;;15.88;;
13807;SDS011;40769;51.512;5.494;2023-02-15T08:10:26;19.60;;;17.55;;
13807;SDS011;40769;51.512;5.494;2023-02-15T08:13:12;21.55;;;18.95;;
13807;SDS011;40769;51.512;5.494;2023-02-15T08:15:38;20.08;;;17.88;;
13807;SDS011;40769;51.512;5.494;2023-02-15T08:18:03;13.32;;;11.98;;
13807;SDS011;40769;51.512;5.494;2023-02-15T08:20:29;12.85;;;11.55;;
13807;SDS011;40769;51.512;5.494;2023-02-15T08:22:54;17.88;;;16.08;;
13807;SDS011;40769;51.512;5.494;2023-02-15T08:25:21;21.83;;;19.45;;
13807;SDS011;40769;51.512;5.494;2023-02-15T08:27:47;22.25;;;19.95;;
13807;SDS011;40769;51.512;5.494;2023-02-15T08:30:12;22.25;;;19.95;;
13807;SDS011;40769;51.512;5.494;2023-02-15T08:32:39;19.52;;;17.50;;
13807;SDS011;40769;51.512;5.494;2023-02-15T08:35:05;13.15;;;11.85;;
13807;SDS011;40769;51.512;5.494;2023-02-15T08:37:31;14.25;;;12.82;;
13807;SDS011;40769;51.512;5.494;2023-02-15T08:39:57;20.48;;;18.30;;
13807;SDS011;40769;51.512;5.494;2023-02-15T08:42:22;22.08;;;19.98;;
13807;SDS011;40769;51.512;5.494;2023-02-15T08:44:48;21.88;;;19.75;;
13807;SDS011;40769;51.512;5.494;2023-02-15T08:47:16;16.80;;;15.15;;
13807;SDS011;40769;51.512;5.494;2023-02-15T08:49:42;13.73;;;12.40;;
13807;SDS011;40769;51.512;5.494;2023-02-15T08:52:07;18.23;;;16.35;;
13807;SDS011;40769;51.512;5.494;2023-02-15T08:54:33;20.40;;;18.30;;
13807;SDS011;40769;51.512;5.494;2023-02-15T08:56:59;21.40;;;19.23;;
13807;SDS011;40769;51.512;5.494;2023-02-15T08:59:27;18.52;;;16.73;;
13807;SDS011;40769;51.512;5.494;2023-02-15T09:01:52;19.38;;;17.38;;
13807;SDS011;40769;51.512;5.494;2023-02-15T09:04:19;15.88;;;14.27;;
13807;SDS011;40769;51.512;5.494;2023-02-15T09:06:46;15.02;;;13.52;;
13807;SDS011;40769;51.512;5.494;2023-02-15T09:09:13;19.15;;;17.05;;
13807;SDS011;40769;51.512;5.494;2023-02-15T09:11:40;19.15;;;17.25;;
13807;SDS011;40769;51.512;5.494;2023-02-15T09:14:08;20.90;;;18.20;;
13807;SDS011;40769;51.512;5.494;2023-02-15T09:16:55;15.90;;;14.18;;
13807;SDS011;40769;51.512;5.494;2023-02-15T09:19:23;13.57;;;12.18;;
13807;SDS011;40769;51.512;5.494;2023-02-15T09:21:49;11.68;;;10.48;;
13807;SDS011;40769;51.512;5.494;2023-02-15T09:24:16;17.40;;;15.68;;
13807;SDS011;40769;51.512;5.494;2023-02-15T09:26:43;19.08;;;17.08;;
13807;SDS011;40769;51.512;5.494;2023-02-15T09:29:11;19.90;;;17.80;;
13807;SDS011;40769;51.512;5.494;2023-02-15T09:31:38;19.92;;;17.67;;
13807;SDS011;40769;51.512;5.494;2023-02-15T09:34:09;18.42;;;16.52;;
13807;SDS011;40769;51.512;5.494;2023-02-15T09:36:37;15.18;;;13.68;;
13807;SDS011;40769;51.512;5.494;2023-02-15T09:53:33;12.02;;;10.85;;
13807;SDS011;40769;51.512;5.494;2023-02-15T09:59:23;15.70;;;14.05;;
13807;SDS011;40769;51.512;5.494;2023-02-15T10:02:30;16.42;;;14.80;;
13807;SDS011;40769;51.512;5.494;2023-02-15T10:08:06;13.90;;;12.10;;
13807;SDS011;40769;51.512;5.494;2023-02-15T10:14:03;15.13;;;13.63;;
13807;SDS011;40769;51.512;5.494;2023-02-15T10:19:10;13.10;;;11.77;;
13807;SDS011;40769;51.512;5.494;2023-02-15T10:24:23;17.15;;;15.45;;
13807;SDS011;40769;51.512;5.494;2023-02-15T10:27:14;16.77;;;15.05;;
13807;SDS011;40769;51.512;5.494;2023-02-15T10:32:31;13.45;;;12.05;;
13807;SDS011;40769;51.512;5.494;2023-02-15T10:35:14;12.38;;;11.07;;
13807;SDS011;40769;51.512;5.494;2023-02-15T10:40:46;18.98;;;15.85;;
13807;SDS011;40769;51.512;5.494;2023-02-15T10:43:32;17.63;;;14.68;;
13807;SDS011;40769;51.512;5.494;2023-02-15T10:55:11;15.40;;;13.18;;
13807;SDS011;40769;51.512;5.494;2023-02-15T10:57:59;13.90;;;12.35;;
13807;SDS011;40769;51.512;5.494;2023-02-15T11:00:45;13.65;;;12.25;;
13807;SDS011;40769;51.512;5.494;2023-02-15T11:03:30;14.80;;;13.23;;
13807;SDS011;40769;51.512;5.494;2023-02-15T11:06:16;16.92;;;14.35;;
13807;SDS011;40769;51.512;5.494;2023-02-15T11:08:45;12.43;;;11.15;;
13807;SDS011;40769;51.512;5.494;2023-02-15T11:11:20;12.02;;;10.20;;
13807;SDS011;40769;51.512;5.494;2023-02-15T11:13:48;16.65;;;13.73;;
13807;SDS011;40769;51.512;5.494;2023-02-15T11:16:20;15.65;;;12.25;;
13807;SDS011;40769;51.512;5.494;2023-02-15T11:18:57;16.15;;;12.80;;
13807;SDS011;40769;51.512;5.494;2023-02-15T11:21:26;15.32;;;12.40;;
13807;SDS011;40769;51.512;5.494;2023-02-15T11:24:07;15.93;;;13.50;;
13807;SDS011;40769;51.512;5.494;2023-02-15T11:32:02;17.38;;;13.90;;
13807;SDS011;40769;51.512;5.494;2023-02-15T11:34:38;17.20;;;13.40;;
13807;SDS011;40769;51.512;5.494;2023-02-15T11:37:15;15.43;;;12.90;;
13807;SDS011;40769;51.512;5.494;2023-02-15T11:39:44;14.60;;;12.30;;
13807;SDS011;40769;51.512;5.494;2023-02-15T11:42:16;15.52;;;13.30;;
13807;SDS011;40769;51.512;5.494;2023-02-15T11:45:04;16.48;;;13.88;;
13807;SDS011;40769;51.512;5.494;2023-02-15T11:47:41;18.98;;;15.18;;
13807;SDS011;40769;51.512;5.494;2023-02-15T11:50:12;19.17;;;15.35;;
13807;SDS011;40769;51.512;5.494;2023-02-15T11:52:41;17.25;;;14.10;;
13807;SDS011;40769;51.512;5.494;2023-02-15T11:55:11;12.70;;;11.38;;
13807;SDS011;40769;51.512;5.494;2023-02-15T11:57:42;13.93;;;12.02;;
13807;SDS011;40769;51.512;5.494;2023-02-15T12:00:27;12.73;;;10.40;;
13807;SDS011;40769;51.512;5.494;2023-02-15T12:03:00;12.30;;;10.85;;
13807;SDS011;40769;51.512;5.494;2023-02-15T12:05:44;13.45;;;11.55;;
13807;SDS011;40769;51.512;5.494;2023-02-15T12:08:13;17.77;;;14.13;;
13807;SDS011;40769;51.512;5.494;2023-02-15T12:10:44;20.67;;;16.60;;
13807;SDS011;40769;51.512;5.494;2023-02-15T12:13:30;15.98;;;14.18;;
13807;SDS011;40769;51.512;5.494;2023-02-15T12:15:57;18.23;;;15.77;;
13807;SDS011;40769;51.512;5.494;2023-02-15T12:18:34;15.82;;;13.63;;
13807;SDS011;40769;51.512;5.494;2023-02-15T12:21:07;15.00;;;13.40;;
13807;SDS011;40769;51.512;5.494;2023-02-15T12:23:50;15.57;;;13.98;;
13807;SDS011;40769;51.512;5.494;2023-02-15T12:26:27;13.75;;;12.25;;
13807;SDS011;40769;51.512;5.494;2023-02-15T12:28:56;18.08;;;14.40;;
13807;SDS011;40769;51.512;5.494;2023-02-15T12:31:37;14.85;;;12.68;;
13807;SDS011;40769;51.512;5.494;2023-02-15T12:36:52;15.98;;;13.63;;
13807;SDS011;40769;51.512;5.494;2023-02-15T12:39:24;15.32;;;13.43;;
13807;SDS011;40769;51.512;5.494;2023-02-15T12:44:25;13.52;;;11.32;;
13807;SDS011;40769;51.512;5.494;2023-02-15T12:49:39;15.73;;;13.15;;
13807;SDS011;40769;51.512;5.494;2023-02-15T12:52:06;16.40;;;13.18;;
13807;SDS011;40769;51.512;5.494;2023-02-15T12:54:49;11.95;;;10.50;;
13807;SDS011;40769;51.512;5.494;2023-02-15T12:57:28;15.10;;;12.90;;
13807;SDS011;40769;51.512;5.494;2023-02-15T13:00:03;12.48;;;11.10;;
13807;SDS011;40769;51.512;5.494;2023-02-15T13:02:54;12.13;;;9.65;;
13807;SDS011;40769;51.512;5.494;2023-02-15T13:05:25;14.98;;;11.10;;
13807;SDS011;40769;51.512;5.494;2023-02-15T13:07:56;15.43;;;12.40;;
13807;SDS011;40769;51.512;5.494;2023-02-15T13:12:56;14.48;;;12.45;;
13807;SDS011;40769;51.512;5.494;2023-02-15T13:15:30;17.55;;;13.95;;
13807;SDS011;40769;51.512;5.494;2023-02-15T13:18:00;17.10;;;13.30;;
13807;SDS011;40769;51.512;5.494;2023-02-15T13:20:27;16.05;;;13.15;;
13807;SDS011;40769;51.512;5.494;2023-02-15T13:23:01;16.27;;;12.48;;
13807;SDS011;40769;51.512;5.494;2023-02-15T13:25:38;15.68;;;12.57;;
13807;SDS011;40769;51.512;5.494;2023-02-15T13:28:13;14.00;;;12.18;;
13807;SDS011;40769;51.512;5.494;2023-02-15T13:30:45;15.85;;;12.45;;
13807;SDS011;40769;51.512;5.494;2023-02-15T13:41:16;14.63;;;12.00;;
13807;SDS011;40769;51.512;5.494;2023-02-15T13:46:54;17.38;;;13.25;;
13807;SDS011;40769;51.512;5.494;2023-02-15T13:52:18;14.77;;;12.65;;
13807;SDS011;40769;51.512;5.494;2023-02-15T14:12:42;13.00;;;10.00;;
13807;SDS011;40769;51.512;5.494;2023-02-15T14:15:35;14.73;;;11.82;;
13807;SDS011;40769;51.512;5.494;2023-02-15T14:26:03;13.25;;;11.15;;
13807;SDS011;40769;51.512;5.494;2023-02-15T14:31:33;16.15;;;13.43;;
13807;SDS011;40769;51.512;5.494;2023-02-15T14:34:02;18.52;;;15.20;;
13807;SDS011;40769;51.512;5.494;2023-02-15T14:36:29;13.75;;;11.77;;
13807;SDS011;40769;51.512;5.494;2023-02-15T14:42:01;15.60;;;13.05;;
13807;SDS011;40769;51.512;5.494;2023-02-15T14:44:39;14.57;;;11.48;;
13807;SDS011;40769;51.512;5.494;2023-02-15T14:47:18;15.85;;;13.27;;
13807;SDS011;40769;51.512;5.494;2023-02-15T14:49:50;15.90;;;13.25;;
13807;SDS011;40769;51.512;5.494;2023-02-15T14:52:15;18.27;;;14.25;;
13807;SDS011;40769;51.512;5.494;2023-02-15T15:02:08;18.98;;;12.95;;
13807;SDS011;40769;51.512;5.494;2023-02-15T15:04:52;16.75;;;13.90;;
13807;SDS011;40769;51.512;5.494;2023-02-15T15:07:48;20.70;;;15.73;;
13807;SDS011;40769;51.512;5.494;2023-02-15T15:20:37;16.20;;;13.07;;
13807;SDS011;40769;51.512;5.494;2023-02-15T15:47:47;14.88;;;12.70;;
13807;SDS011;40769;51.512;5.494;2023-02-15T15:50:17;15.98;;;14.00;;
13807;SDS011;40769;51.512;5.494;2023-02-15T15:52:46;15.68;;;14.00;;
13807;SDS011;40769;51.512;5.494;2023-02-15T15:55:15;18.23;;;14.82;;
13807;SDS011;40769;51.512;5.494;2023-02-15T15:57:43;17.60;;;13.73;;
13807;SDS011;40769;51.512;5.494;2023-02-15T16:02:52;13.82;;;11.50;;
13807;SDS011;40769;51.512;5.494;2023-02-15T16:05:18;13.43;;;12.13;;
13807;SDS011;40769;51.512;5.494;2023-02-15T16:07:44;16.88;;;14.50;;
13807;SDS011;40769;51.512;5.494;2023-02-15T16:10:27;13.43;;;12.00;;
13807;SDS011;40769;51.512;5.494;2023-02-15T16:12:57;13.70;;;12.20;;
13807;SDS011;40769;51.512;5.494;2023-02-15T16:15:24;15.13;;;12.63;;
13807;SDS011;40769;51.512;5.494;2023-02-15T16:17:56;13.27;;;11.88;;
13807;SDS011;40769;51.512;5.494;2023-02-15T16:20:27;14.75;;;13.23;;
13807;SDS011;40769;51.512;5.494;2023-02-15T16:28:23;14.88;;;13.30;;
13807;SDS011;40769;51.512;5.494;2023-02-15T16:33:39;13.98;;;12.02;;
13807;SDS011;40769;51.512;5.494;2023-02-15T16:36:10;17.67;;;13.95;;
13807;SDS011;40769;51.512;5.494;2023-02-15T16:41:21;14.63;;;12.95;;
13807;SDS011;40769;51.512;5.494;2023-02-15T16:43:52;15.05;;;13.48;;
13807;SDS011;40769;51.512;5.494;2023-02-15T16:46:30;16.73;;;14.82;;
13807;SDS011;40769;51.512;5.494;2023-02-15T16:49:12;15.65;;;14.05;;
13807;SDS011;40769;51.512;5.494;2023-02-15T16:51:44;17.65;;;15.75;;
13807;SDS011;40769;51.512;5.494;2023-02-15T16:54:25;14.73;;;13.20;;
13807;SDS011;40769;51.512;5.494;2023-02-15T16:56:53;18.48;;;15.30;;
13807;SDS011;40769;51.512;5.494;2023-02-15T16:59:31;15.18;;;13.57;;
13807;SDS011;40769;51.512;5.494;2023-02-15T17:01:58;13.80;;;12.25;;
13807;SDS011;40769;51.512;5.494;2023-02-15T17:04:26;16.67;;;14.50;;
13807;SDS011;40769;51.512;5.494;2023-02-15T17:07:03;14.57;;;13.07;;
13807;SDS011;40769;51.512;5.494;2023-02-15T17:09:53;12.40;;;11.20;;
13807;SDS011;40769;51.512;5.494;2023-02-15T17:15:31;13.73;;;12.32;;
13807;SDS011;40769;51.512;5.494;2023-02-15T17:20:27;11.98;;;10.77;;
13807;SDS011;40769;51.512;5.494;2023-02-15T17:22:53;12.25;;;10.43;;
13807;SDS011;40769;51.512;5.494;2023-02-15T17:25:20;13.63;;;12.25;;
13807;SDS011;40769;51.512;5.494;2023-02-15T17:27:53;13.02;;;11.57;;
13807;SDS011;40769;51.512;5.494;2023-02-15T17:30:24;13.00;;;11.60;;
13807;SDS011;40769;51.512;5.494;2023-02-15T17:32:57;18.70;;;16.85;;
13807;SDS011;40769;51.512;5.494;2023-02-15T17:35:28;48.45;;;42.85;;
13807;SDS011;40769;51.512;5.494;2023-02-15T17:40:43;123.18;;;109.68;;
13807;SDS011;40769;51.512;5.494;2023-02-15T17:43:09;153.07;;;136.68;;
13807;SDS011;40769;51.512;5.494;2023-02-15T17:45:53;96.28;;;86.13;;
13807;SDS011;40769;51.512;5.494;2023-02-15T17:48:41;62.97;;;56.35;;
13807;SDS011;40769;51.512;5.494;2023-02-15T17:51:06;56.10;;;50.22;;
13807;SDS011;40769;51.512;5.494;2023-02-15T17:53:36;56.22;;;50.28;;
13807;SDS011;40769;51.512;5.494;2023-02-15T17:56:02;51.70;;;46.08;;
13807;SDS011;40769;51.512;5.494;2023-02-15T17:58:35;47.55;;;42.42;;
13807;SDS011;40769;51.512;5.494;2023-02-15T18:01:02;51.55;;;45.92;;
13807;SDS011;40769;51.512;5.494;2023-02-15T18:03:51;52.42;;;46.78;;